Thunder radar more information blitzortung!


Rain radar more information rain snow radar


   Es ist keine erhoehte Aufmerksamkeit aufgrund des Wetters notwendig.   -   Es gibt keine Warnungen :-).

METAR-Meldungen aus der Umgebung

Warning: A non-numeric value encountered in /mnt/web301/a1/70/5400070/htdocs/weather28/metar/metarDisplay.php on line 166 Warning: A non-numeric value encountered in /mnt/web301/a1/70/5400070/htdocs/weather28/metar/metarDisplay.php on line 166
   
EBBR - Brussels International Airport, Belgium
Entfernung von der Station bis: W 14 km
Aktualisierung: 26-01-2020 15:20
leicht bewölkt  
leicht bewölkt  
   Wind: SSW 14.8 km/h
Wind: SSW 14.8 km/h
Temperatur: 10°C
Gefühlt: 8°C
Taupunkt: 6°C
Luftfeuchte: 76%
Luftdruck: 1014 hPa
Bewölkt: leicht bewölkt
Sichtbarkeit: More than 10 km
Bewölkung: leicht bewölkt 2400 ft
EBBR 261420Z 20008KT 9999 FEW024 10/06 Q1014 NOSIG
EBBE - Beauvechain (Bevekom), Belgium
Entfernung von der Station bis: SSO 17 km
Aktualisierung: 26-01-2020 14:55
  
  
   Wind: SSW 22.2 km/h
Wind: SSW 22.2 km/h
EBBE 261355Z AUTO 20012KT //// /// ///// Q////
EBDT - Schaffen, Belgium
Entfernung von der Station bis: ONO 29 km
Aktualisierung: 26-01-2020 14:55
Stark bewölkt  
Stark bewölkt  
   Wind: Süden 16.7 km/h
Wind: Süden 16.7 km/h
Temperatur: 11°C
Taupunkt: 6°C
Luftfeuchte: 72%
Luftdruck: 1014 hPa
Bewölkt: Stark bewölkt
Sichtbarkeit: More than 10 km
Bewölkung: leicht bewölkt 10000 ft,
Teilweise bewölkt 12000 ft,
Stark bewölkt 16000 ft
EBDT 261355Z AUTO 19009KT 9999 FEW100/// SCT120/// BKN160/// 11/06 Q1014 BLU
EBAW - Antwerp/Deurne, Belgium
Entfernung von der Station bis: NNW 38 km
Aktualisierung: 26-01-2020 15:20
Teilweise bewölkt  
Teilweise bewölkt  
   Wind: SSW 16.7 km/h
Wind: SSW 16.7 km/h
Temperatur: 10°C
Gefühlt: 8°C
Taupunkt: 6°C
Luftfeuchte: 76%
Luftdruck: 1013 hPa
Bewölkt: Teilweise bewölkt
Sichtbarkeit: More than 10 km
Bewölkung: leicht bewölkt 2100 ft,
Teilweise bewölkt 3700 ft
EBAW 261420Z 21009KT 170V230 9999 FEW021 SCT037 10/06 Q1013 NOSIG
EBCI - Charleroi/Gosselies, Belgium
Entfernung von der Station bis: SSW 51 km
Aktualisierung: 26-01-2020 15:20
Klar  
Klar  
   Wind: Süden 24.1 km/h
Wind: Süden 24.1 km/h
Temperatur: 8°C
Gefühlt: 4°C
Taupunkt: 5°C
Luftfeuchte: 82%
Luftdruck: 1014 hPa
Sichtbarkeit: More than 10 km
Bewölkung: Klar
EBCI 261420Z 19013KT CAVOK 08/05 Q1014 NOSIG
EBLG - Bierset/Liege, Belgium
Entfernung von der Station bis: OSO 60 km
Aktualisierung: 26-01-2020 15:20
Klar  
Klar  
   Wind: SSW 20.4 km/h
Wind: SSW 20.4 km/h
Temperatur: 9°C
Gefühlt: 6°C
Taupunkt: 4°C
Luftfeuchte: 71%
Luftdruck: 1014 hPa
Sichtbarkeit: More than 10 km
Bewölkung: Klar
EBLG 261420Z 20011KT CAVOK 09/04 Q1014 NOSIG

Script entwickelt von  Saratoga-weather.org Angepasst für das Template von  Weerstation Leuven